Time;durP1;ratioP1;P1;durP2;ratioP2;P2;SDS_P1;SDS_P2;PMS_P1;PMS_P2;Temp;Humidity;BMP_temperature;BMP_pressure;BME280_temperature;BME280_humidity;BME280_pressure;Samples;Min_cycle;Max_cycle;Signal;HPM_P1;HPM_P2
2024/02/28 00:00:41;;;;;;;31.80;19.53;;;;;;;9.31;90.12;98063.72;5136006;23;20628;-84
2024/02/28 00:02:44;;;;;;;34.70;21.67;;;;;;;9.33;90.02;98073.06;5188659;22;20670;-83
2024/02/28 00:04:48;;;;;;;33.70;20.50;;;;;;;9.35;90.45;98071.22;5136452;23;20643;-83
2024/02/28 00:06:53;;;;;;;35.15;20.80;;;;;;;9.38;90.36;98076.22;5187883;22;20595;-83
2024/02/28 00:08:56;;;;;;;36.90;20.73;;;;;;;9.33;90.16;98077.44;5136761;23;20285;-83
2024/02/28 00:10:59;;;;;;;40.40;22.53;;;;;;;9.31;90.14;98072.34;5161259;23;20588;-83
2024/02/28 00:13:02;;;;;;;31.90;20.40;;;;;;;9.29;90.56;98078.56;5135679;23;21117;-83
2024/02/28 00:15:10;;;;;;;32.63;19.90;;;;;;;9.32;90.74;98078.38;5159319;23;21176;-83
2024/02/28 00:17:14;;;;;;;32.87;19.63;;;;;;;9.35;90.77;98084.25;5187344;22;20690;-83
2024/02/28 00:19:18;;;;;;;33.40;19.97;;;;;;;9.40;90.06;98082.16;5187665;22;20556;-87
2024/02/28 00:21:21;;;;;;;33.00;19.30;;;;;;;9.46;90.33;98089.59;5138015;23;21190;-88
2024/02/28 00:23:26;;;;;;;32.37;19.10;;;;;;;9.50;90.33;98088.44;5137399;23;20868;-89
2024/02/28 00:25:29;;;;;;;29.90;18.30;;;;;;;9.53;89.86;98090.84;5137398;23;20577;-87
2024/02/28 00:27:33;;;;;;;31.20;19.00;;;;;;;9.59;90.07;98090.47;5136155;23;20676;-88
2024/02/28 00:29:37;;;;;;;34.75;20.40;;;;;;;9.65;90.55;98093.53;5137520;23;20617;-89
2024/02/28 00:31:40;;;;;;;31.33;19.77;;;;;;;9.72;90.48;98093.94;5136952;23;20181;-87
2024/02/28 00:33:43;;;;;;;33.30;21.40;;;;;;;9.78;90.54;98093.56;5188964;22;20579;-88
2024/02/28 00:35:46;;;;;;;31.80;20.13;;;;;;;9.82;90.64;98100.22;5162161;23;20682;-89
2024/02/28 00:37:50;;;;;;;33.97;20.10;;;;;;;9.86;90.23;98100.78;5162067;23;20580;-89
2024/02/28 00:39:54;;;;;;;30.73;19.30;;;;;;;9.90;90.21;98093.59;5189387;22;20582;-88
2024/02/28 00:41:58;;;;;;;30.67;19.93;;;;;;;9.93;89.63;98098.59;5136627;23;20581;-88
2024/02/28 00:44:01;;;;;;;29.70;19.53;;;;;;;9.95;89.90;98099.34;5136264;23;20609;-88
2024/02/28 00:46:08;;;;;;;32.20;20.30;;;;;;;9.98;89.80;98099.16;5160645;23;20580;-89
2024/02/28 00:48:11;;;;;;;29.20;19.80;;;;;;;10.00;89.82;98095.50;5190345;22;20586;-88
2024/02/28 00:50:14;;;;;;;30.93;19.57;;;;;;;10.00;88.96;98098.13;5137619;23;20609;-88
2024/02/28 00:52:17;;;;;;;33.37;19.30;;;;;;;10.01;88.86;98102.41;5161894;23;20923;-89
2024/02/28 00:54:21;;;;;;;29.30;19.47;;;;;;;10.02;88.79;98105.84;5162451;23;20587;-88
2024/02/28 00:56:27;;;;;;;32.33;20.20;;;;;;;10.04;88.55;98109.16;5189522;22;20686;-89
2024/02/28 00:58:30;;;;;;;32.07;20.70;;;;;;;10.05;88.24;98105.63;5161627;23;20595;-88
2024/02/28 01:00:33;;;;;;;29.53;19.30;;;;;;;10.06;88.45;98105.53;5188721;22;20665;-89
2024/02/28 01:02:37;;;;;;;29.97;18.40;;;;;;;10.09;88.68;98101.91;5162647;23;21381;-88
2024/02/28 01:04:40;;;;;;;29.40;19.40;;;;;;;10.11;89.08;98100.03;5162219;23;20572;-89
2024/02/28 01:06:44;;;;;;;28.97;18.60;;;;;;;10.13;88.76;98104.19;5188597;22;20599;-89
2024/02/28 01:08:47;;;;;;;30.77;18.40;;;;;;;10.07;87.94;98104.59;5163032;23;20610;-89
2024/02/28 01:10:50;;;;;;;30.73;18.87;;;;;;;9.98;88.46;98101.75;5137533;23;20663;-89
2024/02/28 01:12:55;;;;;;;28.50;18.43;;;;;;;9.97;87.82;98095.72;5161915;23;20580;-86
2024/02/28 01:14:58;;;;;;;29.90;19.30;;;;;;;9.96;88.01;98096.63;5188742;22;20585;-88
2024/02/28 01:17:01;;;;;;;29.13;18.67;;;;;;;9.91;88.07;98100.47;5137224;23;20580;-86
2024/02/28 01:19:05;;;;;;;27.97;18.83;;;;;;;9.89;87.42;98094.50;5190101;22;20602;-89
2024/02/28 01:21:08;;;;;;;25.93;17.50;;;;;;;9.85;87.23;98093.88;5137627;23;20569;-89
2024/02/28 01:23:10;;;;;;;28.83;18.90;;;;;;;9.84;87.65;98094.81;5188915;22;20893;-88
2024/02/28 01:25:14;;;;;;;28.70;19.40;;;;;;;9.87;87.26;98101.59;5137176;23;21108;-88
2024/02/28 01:27:17;;;;;;;28.60;17.57;;;;;;;9.89;87.71;98103.19;5188968;22;20668;-89
2024/02/28 01:29:22;;;;;;;28.77;18.93;;;;;;;9.91;87.33;98103.91;5138093;23;20584;-89
2024/02/28 01:31:25;;;;;;;29.53;18.97;;;;;;;9.92;87.54;98108.19;5162488;23;20608;-89
2024/02/28 01:33:28;;;;;;;26.07;17.20;;;;;;;9.85;86.83;98100.88;5161442;23;21029;-88
2024/02/28 01:35:31;;;;;;;29.70;18.07;;;;;;;9.81;86.76;98101.16;5163095;23;20568;-89
2024/02/28 01:37:34;;;;;;;24.70;16.80;;;;;;;9.81;86.90;98102.00;5161834;23;20581;-89
2024/02/28 01:39:38;;;;;;;27.13;17.92;;;;;;;9.79;86.67;98108.22;5163736;23;20584;-89
2024/02/28 01:41:43;;;;;;;28.30;17.70;;;;;;;9.74;87.01;98107.69;5164676;23;20200;-88
2024/02/28 01:43:46;;;;;;;28.87;17.63;;;;;;;9.70;86.80;98103.63;5138754;23;20561;-88
2024/02/28 01:45:52;;;;;;;27.00;17.20;;;;;;;9.65;87.07;98106.53;5163790;23;20591;-89
2024/02/28 01:47:55;;;;;;;29.98;17.88;;;;;;;9.61;86.50;98106.84;5138135;23;21140;-87
2024/02/28 01:49:58;;;;;;;27.47;17.90;;;;;;;9.57;87.08;98111.38;5163375;23;20255;-88
2024/02/28 01:52:00;;;;;;;28.77;17.98;;;;;;;9.53;86.99;98104.72;5163184;23;20580;-87
2024/02/28 01:54:04;;;;;;;29.75;19.48;;;;;;;9.54;87.57;98106.38;5162667;23;20177;-89
2024/02/28 01:56:07;;;;;;;29.15;17.95;;;;;;;9.58;87.27;98118.28;5165064;23;20261;-88
2024/02/28 01:58:11;;;;;;;28.30;18.20;;;;;;;9.58;86.79;98115.66;5192344;22;20223;-88
2024/02/28 02:00:16;;;;;;;36.30;19.73;;;;;;;9.58;87.33;98117.44;5140120;23;20261;-89
2024/02/28 02:02:21;;;;;;;31.50;19.05;;;;;;;9.53;86.99;98120.34;5165817;23;20985;-90
2024/02/28 02:04:24;;;;;;;29.85;18.55;;;;;;;9.45;87.28;98116.53;5139984;23;20206;-90
2024/02/28 02:06:27;;;;;;;31.23;19.60;;;;;;;9.38;87.32;98115.25;5164378;23;20228;-89
2024/02/28 02:08:31;;;;;;;32.77;19.17;;;;;;;9.31;87.58;98124.38;5140059;23;20581;-90
2024/02/28 02:10:34;;;;;;;30.40;19.23;;;;;;;9.24;88.55;98117.88;5140109;23;20983;-89
2024/02/28 02:12:37;;;;;;;30.20;19.15;;;;;;;9.25;87.89;98119.56;5189747;22;20180;-88
2024/02/28 02:14:41;;;;;;;31.63;18.95;;;;;;;9.25;88.80;98122.16;5137059;23;20174;-87
2024/02/28 02:16:45;;;;;;;31.73;19.33;;;;;;;9.28;87.86;98126.38;5160715;23;20197;-88
2024/02/28 02:18:50;;;;;;;29.80;19.03;;;;;;;9.30;87.93;98132.28;5162648;23;20252;-89
2024/02/28 02:21:03;;;;;;;31.85;18.38;;;;;;;9.24;87.70;98136.09;5137456;23;20604;-87
2024/02/28 02:23:08;;;;;;;32.50;20.40;;;;;;;9.26;88.93;98130.81;5187179;22;20183;-89
2024/02/28 02:25:11;;;;;;;31.23;19.70;;;;;;;9.19;87.90;98132.97;5187685;22;20992;-88
2024/02/28 02:27:15;;;;;;;31.38;19.63;;;;;;;9.20;88.41;98133.78;5136003;23;20650;-88
2024/02/28 02:29:18;;;;;;;29.93;19.40;;;;;;;9.23;88.83;98136.19;5137157;23;20182;-89
2024/02/28 02:31:21;;;;;;;30.70;19.77;;;;;;;9.28;88.27;98128.97;5159999;23;20703;-87
2024/02/28 02:33:25;;;;;;;30.35;18.63;;;;;;;9.33;88.24;98147.72;5159301;23;20180;-89
2024/02/28 02:35:28;;;;;;;31.50;19.10;;;;;;;9.29;87.39;98141.88;5136388;23;20240;-88
2024/02/28 02:37:33;;;;;;;33.05;20.00;;;;;;;9.33;87.74;98150.31;5161547;23;20594;-89
2024/02/28 02:39:37;;;;;;;31.27;19.65;;;;;;;9.31;87.68;98153.00;5161816;23;20236;-83
2024/02/28 02:41:41;;;;;;;30.20;19.08;;;;;;;9.27;89.12;98156.72;5136675;23;20689;-83
2024/02/28 02:43:44;;;;;;;31.45;19.48;;;;;;;9.21;88.11;98164.09;5160937;23;20653;-83
2024/02/28 02:45:47;;;;;;;31.63;18.95;;;;;;;9.22;88.83;98158.78;5159257;23;20221;-84
2024/02/28 02:47:50;;;;;;;29.67;18.45;;;;;;;9.26;89.03;98175.91;5160008;23;20178;-83
2024/02/28 02:49:54;;;;;;;32.90;18.73;;;;;;;9.31;88.65;98167.81;5136632;23;20188;-83
2024/02/28 02:51:57;;;;;;;31.60;19.67;;;;;;;9.32;88.22;98169.47;5187254;22;20702;-83
2024/02/28 02:54:00;;;;;;;34.07;20.70;;;;;;;9.37;89.29;98173.44;5159477;23;21064;-83
2024/02/28 02:56:06;;;;;;;35.13;20.80;;;;;;;9.41;89.61;98180.97;5160276;23;20982;-83
2024/02/28 02:58:10;;;;;;;37.70;20.13;;;;;;;9.44;88.99;98179.94;5161821;23;20584;-83
2024/02/28 03:00:13;;;;;;;28.73;18.25;;;;;;;9.47;88.62;98191.00;5159857;23;20200;-83
2024/02/28 03:02:15;;;;;;;28.80;18.43;;;;;;;9.49;88.13;98190.91;5188502;22;20644;-83
2024/02/28 03:04:19;;;;;;;35.92;21.30;;;;;;;9.39;87.68;98185.41;5136776;23;21129;-83
2024/02/28 03:06:23;;;;;;;33.70;21.27;;;;;;;9.24;88.45;98188.13;5135833;23;20924;-83
2024/02/28 03:08:27;;;;;;;33.22;20.92;;;;;;;8.98;87.87;98186.28;5161647;23;20638;-83
2024/02/28 03:10:31;;;;;;;31.27;20.05;;;;;;;8.88;88.75;98192.13;5137158;23;20178;-83
2024/02/28 03:12:36;;;;;;;33.63;20.15;;;;;;;8.92;88.55;98190.22;5136531;23;20170;-84
2024/02/28 03:14:39;;;;;;;34.08;21.15;;;;;;;8.93;88.34;98198.75;5188454;22;20939;-83
2024/02/28 03:16:42;;;;;;;37.00;21.43;;;;;;;8.99;89.53;98205.31;5186768;22;20179;-83
2024/02/28 03:18:46;;;;;;;36.83;21.52;;;;;;;9.00;89.55;98209.63;5136308;23;21015;-83
2024/02/28 03:20:49;;;;;;;32.30;20.30;;;;;;;9.03;88.80;98214.63;5136540;23;20784;-83
2024/02/28 03:22:52;;;;;;;31.00;19.00;;;;;;;9.07;88.80;98214.34;5188353;22;20662;-83
2024/02/28 03:24:55;;;;;;;33.33;20.52;;;;;;;9.02;89.23;98212.94;5134272;23;20748;-83
2024/02/28 03:26:58;;;;;;;35.58;21.20;;;;;;;9.04;89.45;98211.94;5158871;23;20185;-83
2024/02/28 03:29:03;;;;;;;34.97;22.08;;;;;;;9.09;88.65;98220.28;5188078;22;20173;-83
2024/02/28 03:31:06;;;;;;;33.77;20.07;;;;;;;9.14;88.72;98222.63;5161273;23;20204;-83
2024/02/28 03:33:09;;;;;;;32.95;19.27;;;;;;;9.15;88.90;98227.72;5161489;23;20582;-83
2024/02/28 03:35:11;;;;;;;32.70;20.95;;;;;;;9.12;88.88;98235.72;5161343;23;20251;-83
2024/02/28 03:37:15;;;;;;;31.58;20.33;;;;;;;9.14;88.83;98235.63;5160599;23;20264;-83
2024/02/28 03:39:18;;;;;;;31.98;19.77;;;;;;;9.13;89.21;98240.00;5161513;23;20253;-83
2024/02/28 03:41:21;;;;;;;32.00;20.08;;;;;;;9.12;88.75;98240.91;5161115;23;20174;-83
2024/02/28 03:43:25;;;;;;;33.90;20.80;;;;;;;9.11;88.73;98241.00;5136951;23;20240;-83
2024/02/28 03:45:30;;;;;;;32.97;19.58;;;;;;;9.16;89.03;98241.59;5187016;22;20431;-83
2024/02/28 03:47:33;;;;;;;31.83;21.27;;;;;;;9.17;87.78;98245.84;5160197;23;20215;-87
2024/02/28 03:49:37;;;;;;;32.10;19.13;;;;;;;9.20;88.81;98249.13;5135516;23;20572;-87
2024/02/28 03:51:41;;;;;;;31.08;19.23;;;;;;;9.22;88.71;98252.47;5136418;23;20671;-88
2024/02/28 03:53:45;;;;;;;32.40;19.33;;;;;;;9.22;88.04;98249.03;5135613;23;20669;-88
2024/02/28 03:55:48;;;;;;;32.80;20.03;;;;;;;9.23;88.11;98259.34;5135761;23;20596;-89
2024/02/28 03:57:51;;;;;;;36.30;20.63;;;;;;;9.22;88.39;98260.25;5163149;23;20619;-89
2024/02/28 03:59:55;;;;;;;37.22;23.10;;;;;;;9.25;88.36;98262.69;5136869;23;21171;-89
2024/02/28 04:01:59;;;;;;;41.70;26.55;;;;;;;9.24;87.78;98263.59;5188779;22;20568;-89
2024/02/28 04:04:03;;;;;;;43.87;25.67;;;;;;;9.25;88.23;98261.84;5137199;23;20182;-89
2024/02/28 04:06:06;;;;;;;46.83;26.30;;;;;;;9.19;88.70;98263.06;5188472;22;20714;-88
2024/02/28 04:08:08;;;;;;;38.70;25.00;;;;;;;9.18;87.38;98261.38;5163393;23;20580;-89
2024/02/28 04:10:12;;;;;;;39.50;23.50;;;;;;;9.17;88.05;98272.72;5162564;23;20579;-88
2024/02/28 04:12:15;;;;;;;42.03;24.15;;;;;;;9.17;88.47;98261.47;5137883;23;20220;-89
2024/02/28 04:14:18;;;;;;;46.85;25.90;;;;;;;9.19;87.99;98273.47;5163245;23;20317;-89
2024/02/28 04:16:21;;;;;;;38.80;23.45;;;;;;;9.21;88.54;98275.97;5189487;22;20175;-88
2024/02/28 04:18:25;;;;;;;32.67;20.60;;;;;;;9.22;88.12;98283.69;5162950;23;20213;-89
2024/02/28 04:20:29;;;;;;;34.23;20.23;;;;;;;9.22;88.04;98275.88;5190259;22;21102;-89
2024/02/28 04:22:32;;;;;;;32.42;20.65;;;;;;;9.20;88.55;98275.16;5162890;23;20599;-89
2024/02/28 04:24:34;;;;;;;37.50;21.47;;;;;;;9.23;88.75;98279.31;5137377;23;20181;-89
2024/02/28 04:26:38;;;;;;;39.92;22.88;;;;;;;9.23;88.24;98284.50;5162951;23;20587;-88
2024/02/28 04:28:42;;;;;;;33.90;21.97;;;;;;;9.24;88.79;98286.19;5164205;23;20201;-90
2024/02/28 04:30:45;;;;;;;35.83;21.37;;;;;;;9.23;88.81;98277.56;5137747;23;20696;-89
2024/02/28 04:32:49;;;;;;;34.43;20.10;;;;;;;9.24;88.79;98278.38;5190263;22;20591;-89
2024/02/28 04:34:54;;;;;;;35.90;20.33;;;;;;;9.23;89.00;98269.75;5137650;23;20656;-89
2024/02/28 04:36:57;;;;;;;35.30;20.90;;;;;;;9.21;88.38;98274.19;5188544;22;20586;-89
2024/02/28 04:39:01;;;;;;;38.20;21.20;;;;;;;9.25;88.44;98274.88;5161088;23;20264;-88
2024/02/28 04:41:05;;;;;;;36.60;20.67;;;;;;;9.19;88.27;98278.66;5136676;23;20587;-88
2024/02/28 04:43:08;;;;;;;35.10;20.65;;;;;;;9.15;87.80;98279.75;5137873;23;20611;-89
2024/02/28 04:45:12;;;;;;;36.63;22.00;;;;;;;9.16;87.71;98272.81;5135426;23;20182;-89
2024/02/28 04:47:14;;;;;;;33.33;20.98;;;;;;;9.17;87.94;98269.25;5136570;23;20616;-88
2024/02/28 04:49:18;;;;;;;36.10;22.00;;;;;;;9.21;88.82;98279.41;5162077;23;20174;-89
2024/02/28 04:51:23;;;;;;;32.63;20.00;;;;;;;9.26;89.13;98282.59;5137620;23;20589;-89
2024/02/28 04:53:26;;;;;;;37.60;22.60;;;;;;;9.31;88.71;98283.13;5161657;23;20604;-88
2024/02/28 04:55:29;;;;;;;34.27;20.93;;;;;;;9.34;89.40;98284.72;5162324;23;20595;-88
2024/02/28 04:57:33;;;;;;;34.97;21.20;;;;;;;9.37;88.63;98287.09;5189022;22;20583;-85
2024/02/28 04:59:35;;;;;;;34.60;20.63;;;;;;;9.38;89.34;98281.00;5138008;23;20623;-83
2024/02/28 05:01:39;;;;;;;31.20;18.93;;;;;;;9.41;89.04;98279.03;5136989;23;21242;-83
2024/02/28 05:03:42;;;;;;;32.27;20.37;;;;;;;9.43;89.24;98282.41;5161789;23;21192;-83
2024/02/28 05:05:45;;;;;;;34.10;20.33;;;;;;;9.46;88.83;98290.00;5187991;22;21153;-83
2024/02/28 05:07:50;;;;;;;32.20;19.10;;;;;;;9.47;88.63;98292.53;5161876;23;20186;-83
2024/02/28 05:09:54;;;;;;;31.30;19.67;;;;;;;9.45;87.97;98296.97;5161762;23;20181;-83
2024/02/28 05:11:58;;;;;;;29.95;19.05;;;;;;;9.46;88.00;98300.44;5137011;23;20572;-83
2024/02/28 05:14:02;;;;;;;31.90;19.50;;;;;;;9.46;87.90;98290.84;5188648;22;20529;-84
2024/02/28 05:16:05;;;;;;;29.60;17.93;;;;;;;9.48;87.40;98298.56;5161782;23;20670;-83
2024/02/28 05:18:08;;;;;;;30.33;18.70;;;;;;;9.46;87.77;98297.81;5137862;23;20616;-83
2024/02/28 05:20:12;;;;;;;31.30;19.27;;;;;;;9.46;87.44;98301.25;5189055;22;20575;-83
2024/02/28 05:22:16;;;;;;;31.33;19.80;;;;;;;9.43;87.14;98296.22;5136744;23;20604;-83
2024/02/28 05:24:21;;;;;;;33.20;19.42;;;;;;;9.39;87.47;98293.91;5162452;23;20711;-83
2024/02/28 05:26:25;;;;;;;30.40;19.25;;;;;;;9.36;88.19;98296.69;5134995;23;20174;-83
2024/02/28 05:28:29;;;;;;;30.90;19.60;;;;;;;9.36;87.55;98294.09;5189999;22;20323;-83
2024/02/28 05:30:32;;;;;;;26.77;17.67;;;;;;;9.34;87.07;98292.53;5136634;23;20577;-83
2024/02/28 05:32:35;;;;;;;31.35;19.83;;;;;;;9.27;87.89;98301.63;5135957;23;20647;-83
2024/02/28 05:34:39;;;;;;;32.13;19.75;;;;;;;9.23;88.20;98305.31;5162255;23;20177;-83
2024/02/28 05:36:42;;;;;;;30.80;18.77;;;;;;;9.26;87.88;98297.34;5161544;23;20180;-83
2024/02/28 05:38:45;;;;;;;30.37;18.97;;;;;;;9.28;87.73;98303.31;5136523;23;21047;-84
2024/02/28 05:40:49;;;;;;;44.53;26.23;;;;;;;9.31;88.62;98303.94;5136905;23;20599;-83
2024/02/28 05:42:53;;;;;;;48.03;28.17;;;;;;;9.33;88.08;98306.47;5136249;23;20650;-83
2024/02/28 05:44:56;;;;;;;54.80;35.00;;;;;;;9.34;88.85;98298.56;5135924;23;20632;-83
2024/02/28 05:47:00;;;;;;;62.20;46.67;;;;;;;9.37;87.89;98314.00;5161227;23;20204;-81
2024/02/28 05:49:03;;;;;;;45.60;30.93;;;;;;;9.39;88.30;98312.13;5160855;23;20646;-81
2024/02/28 05:51:07;;;;;;;30.67;21.23;;;;;;;9.37;87.46;98318.34;5160997;23;20619;-81
2024/02/28 05:53:10;;;;;;;29.63;18.80;;;;;;;9.36;88.34;98317.50;5188166;22;20985;-82
2024/02/28 05:55:13;;;;;;;30.53;19.17;;;;;;;9.39;88.32;98319.94;5137648;23;20581;-82
2024/02/28 05:57:18;;;;;;;27.77;18.55;;;;;;;9.40;88.47;98324.22;5136927;23;20668;-82
2024/02/28 05:59:21;;;;;;;32.60;19.10;;;;;;;9.42;88.58;98331.00;5162114;23;20698;-81
2024/02/28 06:01:25;;;;;;;31.57;19.00;;;;;;;9.43;88.33;98334.44;5162342;23;20628;-81
2024/02/28 06:03:28;;;;;;;27.80;18.87;;;;;;;9.44;88.34;98336.09;5161171;23;20975;-82
2024/02/28 06:05:31;;;;;;;29.55;19.05;;;;;;;9.47;89.03;98335.91;5188972;22;20650;-82
2024/02/28 06:07:35;;;;;;;28.23;19.20;;;;;;;9.49;88.91;98345.31;5136459;23;20284;-88
2024/02/28 06:09:38;;;;;;;30.87;19.90;;;;;;;9.49;88.83;98344.50;5161423;23;21097;-82
2024/02/28 06:11:41;;;;;;;29.23;17.87;;;;;;;9.50;88.20;98351.34;5162230;23;21159;-82
2024/02/28 06:13:46;;;;;;;24.53;15.73;;;;;;;9.47;87.63;98351.53;5161730;23;20760;-82
2024/02/28 06:15:48;;;;;;;26.13;16.70;;;;;;;9.41;86.79;98362.31;5161538;23;20614;-82
2024/02/28 06:17:51;;;;;;;24.93;16.07;;;;;;;9.29;86.49;98347.47;5137180;23;20928;-82
2024/02/28 06:19:55;;;;;;;27.27;16.17;;;;;;;9.23;86.21;98352.16;5161921;23;20926;-82
2024/02/28 06:21:59;;;;;;;29.80;16.90;;;;;;;9.10;86.51;98348.63;5136495;23;20628;-82
2024/02/28 06:24:04;;;;;;;31.27;18.17;;;;;;;8.91;86.93;98342.78;5162344;23;20682;-82
2024/02/28 06:26:14;;;;;;;28.95;18.08;;;;;;;8.90;87.01;98353.28;5159991;23;20599;-82
2024/02/28 06:28:18;;;;;;;30.75;19.00;;;;;;;8.80;88.44;98353.00;5162213;23;20648;-81
2024/02/28 06:30:22;;;;;;;28.07;17.10;;;;;;;8.75;88.26;98359.34;5136734;23;20506;-83
2024/02/28 06:32:26;;;;;;;29.90;17.83;;;;;;;8.75;88.75;98360.22;5135791;23;20583;-80
2024/02/28 06:34:28;;;;;;;28.42;17.75;;;;;;;8.65;88.05;98363.44;5159208;23;20200;-83
2024/02/28 06:36:31;;;;;;;30.67;18.23;;;;;;;8.56;88.78;98367.38;5186575;22;20230;-81
2024/02/28 06:38:34;;;;;;;30.80;17.77;;;;;;;8.55;88.98;98370.91;5161643;23;20587;-82
2024/02/28 06:40:37;;;;;;;31.95;17.60;;;;;;;8.61;89.63;98378.34;5136134;23;20585;-83
2024/02/28 06:42:40;;;;;;;30.70;18.40;;;;;;;8.63;89.72;98380.84;5189139;22;20208;-83
2024/02/28 06:44:44;;;;;;;30.45;18.75;;;;;;;8.66;89.82;98381.53;5137748;23;20178;-81
2024/02/28 06:46:49;;;;;;;33.20;18.30;;;;;;;8.63;88.63;98378.25;5161444;23;20520;-82
2024/02/28 06:48:51;;;;;;;29.67;18.80;;;;;;;8.61;88.47;98382.69;5134942;23;20651;-83
2024/02/28 06:50:54;;;;;;;29.85;18.48;;;;;;;8.66;89.63;98383.28;5136942;23;20664;-82
2024/02/28 06:52:56;;;;;;;33.33;18.35;;;;;;;8.65;89.62;98385.03;5160481;23;20173;-81
2024/02/28 06:55:03;;;;;;;30.50;16.90;;;;;;;8.51;88.38;98386.75;5160347;23;20180;-83
2024/02/28 06:57:06;;;;;;;28.85;17.92;;;;;;;8.44;90.32;98390.59;5135664;23;20689;-84
2024/02/28 06:59:09;;;;;;;27.40;16.35;;;;;;;8.46;89.23;98388.75;5160870;23;20181;-81
2024/02/28 07:01:12;;;;;;;30.92;17.73;;;;;;;8.39;89.60;98391.78;5137136;23;20196;-84
2024/02/28 07:03:17;;;;;;;28.85;17.52;;;;;;;8.44;89.37;98397.56;5189408;22;20173;-83
2024/02/28 07:05:21;;;;;;;28.27;17.60;;;;;;;8.43;89.25;98393.28;5189832;22;20640;-84
2024/02/28 07:07:23;;;;;;;25.85;16.42;;;;;;;8.46;89.62;98399.16;5162782;23;20180;-83
2024/02/28 07:09:29;;;;;;;29.70;16.85;;;;;;;8.48;90.29;98392.13;5189466;22;20200;-84
2024/02/28 07:11:33;;;;;;;33.63;17.30;;;;;;;8.58;89.30;98398.47;5138367;23;20178;-84
2024/02/28 07:13:36;;;;;;;27.48;16.10;;;;;;;8.66;88.77;98401.47;5161988;23;20617;-84
2024/02/28 07:15:39;;;;;;;31.48;17.70;;;;;;;8.72;88.77;98407.19;5139272;23;20174;-84
2024/02/28 07:17:43;;;;;;;26.30;15.75;;;;;;;8.72;88.03;98416.72;5139719;23;20209;-84
2024/02/28 07:19:47;;;;;;;29.15;15.30;;;;;;;8.51;87.74;98417.94;5139765;23;20216;-83
2024/02/28 07:21:51;;;;;;;30.27;17.00;;;;;;;8.41;88.86;98418.53;5166070;23;20187;-83
2024/02/28 07:23:55;;;;;;;28.88;16.90;;;;;;;8.45;88.42;98426.91;5165539;23;20173;-84
2024/02/28 07:25:58;;;;;;;28.02;17.25;;;;;;;8.52;89.39;98423.06;5140197;23;20229;-83
2024/02/28 07:28:11;;;;;;;28.60;16.65;;;;;;;8.53;89.48;98426.50;5139817;23;20199;-82
2024/02/28 07:30:13;;;;;;;28.23;16.23;;;;;;;8.58;88.63;98432.25;5166507;23;20609;-82
2024/02/28 07:32:16;;;;;;;30.60;16.20;;;;;;;8.64;89.29;98431.94;5139831;23;20178;-82
2024/02/28 07:34:19;;;;;;;25.63;16.17;;;;;;;8.62;88.17;98436.38;5166480;23;20193;-84
2024/02/28 07:36:24;;;;;;;27.98;16.25;;;;;;;8.66;88.87;98445.66;5163614;23;20252;-81
2024/02/28 07:38:28;;;;;;;26.40;16.17;;;;;;;8.71;89.62;98444.50;5163559;23;20203;-82
2024/02/28 07:40:31;;;;;;;31.38;17.73;;;;;;;8.78;88.48;98458.84;5164185;23;21016;-82
2024/02/28 07:42:34;;;;;;;27.75;16.63;;;;;;;8.79;89.27;98457.09;5189831;22;20186;-82
2024/02/28 07:44:38;;;;;;;28.63;16.90;;;;;;;8.84;88.67;98453.31;5138733;23;20178;-82
2024/02/28 07:46:42;;;;;;;27.93;16.60;;;;;;;8.92;88.75;98458.09;5187752;22;20614;-82
2024/02/28 07:48:45;;;;;;;32.70;17.60;;;;;;;8.95;88.41;98461.34;5188918;22;21181;-81
2024/02/28 07:50:48;;;;;;;32.30;18.47;;;;;;;9.01;88.30;98469.63;5164115;23;20548;-82
2024/02/28 07:52:54;;;;;;;29.05;17.65;;;;;;;9.03;88.68;98469.56;5190405;22;20597;-82
2024/02/28 07:54:57;;;;;;;30.30;18.20;;;;;;;9.04;87.57;98472.06;5139046;23;20258;-82
2024/02/28 07:57:01;;;;;;;28.97;17.57;;;;;;;9.08;88.55;98476.19;5137971;23;20627;-82
2024/02/28 07:59:04;;;;;;;28.77;17.77;;;;;;;9.14;88.42;98478.44;5189168;22;20583;-82
2024/02/28 08:01:07;;;;;;;29.27;16.97;;;;;;;9.18;87.70;98482.53;5137606;23;20236;-82
2024/02/28 08:03:11;;;;;;;28.50;17.23;;;;;;;9.25;88.17;98483.88;5164165;23;20697;-82
2024/02/28 08:05:14;;;;;;;30.60;17.10;;;;;;;9.29;87.81;98484.53;5189425;22;20180;-82
2024/02/28 08:07:16;;;;;;;27.43;17.13;;;;;;;9.31;87.90;98490.50;5189112;22;20897;-82
2024/02/28 08:09:22;;;;;;;29.97;17.63;;;;;;;9.34;87.19;98496.34;5189281;22;20579;-82
2024/02/28 08:11:25;;;;;;;27.05;16.50;;;;;;;9.34;88.32;98498.13;5164599;23;20599;-82
2024/02/28 08:13:29;;;;;;;28.10;16.10;;;;;;;9.37;86.96;98497.94;5163151;23;20179;-82
2024/02/28 08:15:32;;;;;;;26.50;16.80;;;;;;;9.38;87.04;98503.91;5159022;23;20610;-84
2024/02/28 08:17:36;;;;;;;26.20;16.83;;;;;;;9.40;86.99;98502.03;5161076;23;21137;-84
2024/02/28 08:19:42;;;;;;;33.78;16.98;;;;;;;9.38;86.61;98503.03;5135131;23;20692;-82
2024/02/28 08:21:45;;;;;;;29.13;17.17;;;;;;;9.37;86.73;98506.59;5161939;23;20173;-82
2024/02/28 08:23:48;;;;;;;34.40;19.67;;;;;;;9.35;86.98;98502.41;5188184;22;20169;-83
2024/02/28 08:25:54;;;;;;;32.17;19.10;;;;;;;9.32;86.17;98512.97;5162662;23;20576;-82
2024/02/28 08:27:57;;;;;;;28.73;17.13;;;;;;;9.30;87.12;98500.06;5187899;22;20632;-85
2024/02/28 08:30:00;;;;;;;30.20;16.10;;;;;;;9.28;86.30;98511.50;5162319;23;20181;-89
2024/02/28 08:32:04;;;;;;;29.03;15.77;;;;;;;9.22;86.16;98502.25;5136993;23;20959;-89
2024/02/28 08:34:06;;;;;;;28.10;15.97;;;;;;;9.12;86.20;98503.69;5139312;23;20622;-89
2024/02/28 08:36:10;;;;;;;29.53;15.90;;;;;;;9.05;86.49;98504.97;5137913;23;20581;-89
2024/02/28 08:38:13;;;;;;;31.10;17.90;;;;;;;8.98;87.62;98506.22;5137855;23;20572;-85
2024/02/28 08:40:16;;;;;;;30.88;17.55;;;;;;;9.01;87.18;98502.63;5137608;23;20182;-88
2024/02/28 08:42:21;;;;;;;34.23;18.67;;;;;;;9.02;87.72;98510.34;5186430;22;20207;-88
2024/02/28 08:44:24;;;;;;;29.00;17.35;;;;;;;9.01;87.14;98513.84;5136897;23;20577;-88
2024/02/28 08:46:27;;;;;;;28.60;17.50;;;;;;;8.97;87.65;98509.72;5161199;23;20204;-88
2024/02/28 08:48:30;;;;;;;30.73;16.73;;;;;;;8.96;87.88;98507.25;5163518;23;20208;-88
2024/02/28 08:50:34;;;;;;;31.42;16.75;;;;;;;8.98;87.34;98519.22;5164183;23;21630;-88
2024/02/28 08:52:37;;;;;;;43.30;25.75;;;;;;;9.04;87.85;98513.69;5190487;22;20176;-87
2024/02/28 08:54:39;;;;;;;35.67;19.40;;;;;;;9.06;88.16;98516.22;5138917;23;20194;-88
2024/02/28 08:56:43;;;;;;;34.08;17.83;;;;;;;8.96;88.40;98510.69;5160046;23;20738;-88
2024/02/28 08:59:00;;;;;;;34.45;18.40;;;;;;;8.98;88.59;98508.81;5163453;23;20174;-89
2024/02/28 09:01:04;;;;;;;31.92;17.38;;;;;;;8.99;88.41;98517.47;5139193;23;20180;-88
2024/02/28 09:03:07;;;;;;;36.13;20.42;;;;;;;8.99;87.33;98517.47;5163669;23;20174;-88
2024/02/28 09:05:10;;;;;;;33.95;18.92;;;;;;;8.93;87.69;98515.22;5163187;23;20177;-89
2024/02/28 09:07:13;;;;;;;31.85;16.77;;;;;;;8.89;87.66;98516.31;5162330;23;20197;-89
2024/02/28 09:09:16;;;;;;;32.60;16.90;;;;;;;8.82;87.57;98514.13;5136322;23;20182;-88
2024/02/28 09:11:20;;;;;;;32.03;17.42;;;;;;;8.79;86.95;98511.69;5163580;23;20208;-88
2024/02/28 09:13:23;;;;;;;34.17;16.85;;;;;;;8.68;88.23;98512.25;5137890;23;20182;-88
2024/02/28 09:15:26;;;;;;;32.80;17.92;;;;;;;8.63;88.80;98516.03;5161914;23;20284;-89
2024/02/28 09:17:31;;;;;;;32.55;17.30;;;;;;;8.65;89.29;98514.19;5138137;23;20269;-88
2024/02/28 09:19:34;;;;;;;35.65;17.52;;;;;;;8.70;88.81;98515.63;5163346;23;20204;-89
2024/02/28 09:21:37;;;;;;;34.40;17.45;;;;;;;8.67;89.13;98522.75;5139198;23;20776;-89
2024/02/28 09:23:41;;;;;;;35.17;17.73;;;;;;;8.63;88.88;98519.47;5189568;22;20172;-89
2024/02/28 09:25:43;;;;;;;35.50;17.80;;;;;;;8.68;89.81;98522.66;5137510;23;20174;-88
2024/02/28 09:27:46;;;;;;;34.00;18.98;;;;;;;8.79;88.86;98522.09;5161770;23;20173;-88
2024/02/28 09:29:49;;;;;;;35.72;19.25;;;;;;;8.80;88.63;98519.41;5138325;23;20181;-89
2024/02/28 09:31:54;;;;;;;34.38;18.50;;;;;;;8.83;88.68;98526.22;5163370;23;20173;-89
2024/02/28 09:33:58;;;;;;;30.77;17.63;;;;;;;8.90;89.22;98525.78;5137445;23;20208;-89